sensor_id;sensor_type;location;lat;lon;timestamp;P1;durP1;ratioP1;P2;durP2;ratioP2
40815;SDS011;26535;48.788;9.214;2022-12-16T00:00:27;51.13;;;24.52;;
40815;SDS011;26535;48.788;9.214;2022-12-16T06:02:46;30.27;;;16.25;;
40815;SDS011;26535;48.788;9.214;2022-12-16T06:05:32;33.15;;;16.10;;
40815;SDS011;26535;48.788;9.214;2022-12-16T06:08:16;31.70;;;15.85;;
40815;SDS011;26535;48.788;9.214;2022-12-16T06:11:01;31.85;;;15.68;;
40815;SDS011;26535;48.788;9.214;2022-12-16T06:13:48;27.67;;;14.18;;
40815;SDS011;26535;48.788;9.214;2022-12-16T06:16:33;27.35;;;14.57;;
40815;SDS011;26535;48.788;9.214;2022-12-16T06:19:17;27.40;;;13.27;;
40815;SDS011;26535;48.788;9.214;2022-12-16T06:22:10;29.08;;;14.30;;
40815;SDS011;26535;48.788;9.214;2022-12-16T06:24:54;30.45;;;14.30;;
40815;SDS011;26535;48.788;9.214;2022-12-16T06:27:39;28.23;;;14.80;;
40815;SDS011;26535;48.788;9.214;2022-12-16T06:30:23;28.77;;;15.60;;
40815;SDS011;26535;48.788;9.214;2022-12-16T06:33:07;27.13;;;14.27;;
40815;SDS011;26535;48.788;9.214;2022-12-16T06:35:52;30.88;;;16.02;;
40815;SDS011;26535;48.788;9.214;2022-12-16T06:38:37;27.90;;;15.13;;
40815;SDS011;26535;48.788;9.214;2022-12-16T06:41:21;28.45;;;14.50;;
40815;SDS011;26535;48.788;9.214;2022-12-16T06:44:05;29.63;;;14.82;;
40815;SDS011;26535;48.788;9.214;2022-12-16T06:46:50;29.95;;;15.25;;
40815;SDS011;26535;48.788;9.214;2022-12-16T06:49:34;34.08;;;15.75;;
40815;SDS011;26535;48.788;9.214;2022-12-16T06:52:18;27.45;;;14.52;;
40815;SDS011;26535;48.788;9.214;2022-12-16T06:55:02;28.92;;;14.93;;
40815;SDS011;26535;48.788;9.214;2022-12-16T06:57:47;30.58;;;15.10;;
40815;SDS011;26535;48.788;9.214;2022-12-16T07:00:31;27.23;;;14.63;;
40815;SDS011;26535;48.788;9.214;2022-12-16T07:03:16;26.50;;;13.65;;
40815;SDS011;26535;48.788;9.214;2022-12-16T07:06:00;27.95;;;13.43;;
40815;SDS011;26535;48.788;9.214;2022-12-16T07:08:44;29.40;;;14.27;;
40815;SDS011;26535;48.788;9.214;2022-12-16T07:11:29;25.67;;;14.80;;
40815;SDS011;26535;48.788;9.214;2022-12-16T07:14:42;30.05;;;14.82;;
40815;SDS011;26535;48.788;9.214;2022-12-16T07:17:26;24.17;;;12.98;;
40815;SDS011;26535;48.788;9.214;2022-12-16T07:20:10;28.85;;;13.90;;
40815;SDS011;26535;48.788;9.214;2022-12-16T07:22:55;28.55;;;14.27;;
40815;SDS011;26535;48.788;9.214;2022-12-16T07:25:39;26.25;;;14.43;;
40815;SDS011;26535;48.788;9.214;2022-12-16T07:28:24;26.58;;;13.85;;
40815;SDS011;26535;48.788;9.214;2022-12-16T07:31:10;24.83;;;13.45;;
40815;SDS011;26535;48.788;9.214;2022-12-16T07:33:58;26.00;;;13.85;;
40815;SDS011;26535;48.788;9.214;2022-12-16T07:36:42;28.00;;;13.93;;
40815;SDS011;26535;48.788;9.214;2022-12-16T07:39:26;25.90;;;13.07;;
40815;SDS011;26535;48.788;9.214;2022-12-16T07:42:10;24.33;;;11.75;;
40815;SDS011;26535;48.788;9.214;2022-12-16T07:44:55;25.42;;;12.05;;
40815;SDS011;26535;48.788;9.214;2022-12-16T07:47:46;24.48;;;12.48;;
40815;SDS011;26535;48.788;9.214;2022-12-16T07:50:31;24.90;;;12.95;;
40815;SDS011;26535;48.788;9.214;2022-12-16T07:53:15;22.35;;;11.52;;
40815;SDS011;26535;48.788;9.214;2022-12-16T07:56:00;26.35;;;12.25;;
40815;SDS011;26535;48.788;9.214;2022-12-16T07:58:44;24.38;;;12.65;;
40815;SDS011;26535;48.788;9.214;2022-12-16T08:01:32;28.85;;;12.68;;
40815;SDS011;26535;48.788;9.214;2022-12-16T08:04:16;30.38;;;13.32;;
40815;SDS011;26535;48.788;9.214;2022-12-16T08:07:01;25.85;;;12.80;;
40815;SDS011;26535;48.788;9.214;2022-12-16T08:09:45;25.35;;;12.55;;
40815;SDS011;26535;48.788;9.214;2022-12-16T08:12:29;25.73;;;12.90;;
40815;SDS011;26535;48.788;9.214;2022-12-16T08:15:14;24.40;;;11.77;;
40815;SDS011;26535;48.788;9.214;2022-12-16T08:17:59;22.65;;;11.98;;
40815;SDS011;26535;48.788;9.214;2022-12-16T08:20:43;24.33;;;12.18;;
40815;SDS011;26535;48.788;9.214;2022-12-16T08:23:27;19.90;;;10.70;;
40815;SDS011;26535;48.788;9.214;2022-12-16T08:26:13;23.60;;;11.70;;
40815;SDS011;26535;48.788;9.214;2022-12-16T08:28:57;21.77;;;11.57;;
40815;SDS011;26535;48.788;9.214;2022-12-16T08:31:41;21.58;;;11.35;;
40815;SDS011;26535;48.788;9.214;2022-12-16T08:34:26;22.58;;;12.18;;
40815;SDS011;26535;48.788;9.214;2022-12-16T08:37:10;22.00;;;10.95;;
40815;SDS011;26535;48.788;9.214;2022-12-16T08:39:55;21.83;;;11.93;;
40815;SDS011;26535;48.788;9.214;2022-12-16T08:42:42;21.75;;;11.23;;
40815;SDS011;26535;48.788;9.214;2022-12-16T08:45:27;21.08;;;10.60;;
40815;SDS011;26535;48.788;9.214;2022-12-16T08:48:14;21.38;;;10.85;;
40815;SDS011;26535;48.788;9.214;2022-12-16T08:51:02;20.97;;;11.17;;
40815;SDS011;26535;48.788;9.214;2022-12-16T08:53:48;21.23;;;10.48;;
40815;SDS011;26535;48.788;9.214;2022-12-16T08:56:33;18.80;;;10.50;;
40815;SDS011;26535;48.788;9.214;2022-12-16T08:59:17;19.85;;;10.55;;
40815;SDS011;26535;48.788;9.214;2022-12-16T09:02:02;19.70;;;10.38;;
40815;SDS011;26535;48.788;9.214;2022-12-16T09:04:46;20.42;;;10.88;;
40815;SDS011;26535;48.788;9.214;2022-12-16T09:07:34;19.23;;;10.50;;
40815;SDS011;26535;48.788;9.214;2022-12-16T09:10:18;20.50;;;10.63;;
40815;SDS011;26535;48.788;9.214;2022-12-16T09:13:09;18.13;;;9.85;;
40815;SDS011;26535;48.788;9.214;2022-12-16T09:15:55;18.77;;;9.60;;
40815;SDS011;26535;48.788;9.214;2022-12-16T09:18:39;17.92;;;8.98;;
40815;SDS011;26535;48.788;9.214;2022-12-16T09:21:23;19.05;;;9.65;;
40815;SDS011;26535;48.788;9.214;2022-12-16T09:24:08;16.02;;;9.00;;
40815;SDS011;26535;48.788;9.214;2022-12-16T09:26:52;14.40;;;7.88;;
40815;SDS011;26535;48.788;9.214;2022-12-16T09:29:36;19.65;;;9.48;;
40815;SDS011;26535;48.788;9.214;2022-12-16T09:32:21;16.55;;;9.00;;
40815;SDS011;26535;48.788;9.214;2022-12-16T09:35:05;19.05;;;8.98;;
40815;SDS011;26535;48.788;9.214;2022-12-16T09:37:50;17.77;;;9.23;;
40815;SDS011;26535;48.788;9.214;2022-12-16T09:40:36;19.40;;;9.00;;
40815;SDS011;26535;48.788;9.214;2022-12-16T09:47:01;17.85;;;8.82;;
40815;SDS011;26535;48.788;9.214;2022-12-16T09:49:51;15.73;;;8.60;;
40815;SDS011;26535;48.788;9.214;2022-12-16T09:52:47;16.35;;;8.77;;
40815;SDS011;26535;48.788;9.214;2022-12-16T09:55:39;18.05;;;8.10;;
40815;SDS011;26535;48.788;9.214;2022-12-16T09:58:28;16.73;;;8.00;;
40815;SDS011;26535;48.788;9.214;2022-12-16T10:01:18;16.60;;;7.90;;
40815;SDS011;26535;48.788;9.214;2022-12-16T10:04:05;17.13;;;8.15;;
40815;SDS011;26535;48.788;9.214;2022-12-16T10:06:54;15.57;;;8.35;;
40815;SDS011;26535;48.788;9.214;2022-12-16T10:13:23;14.82;;;8.43;;
40815;SDS011;26535;48.788;9.214;2022-12-16T10:16:17;17.60;;;8.38;;
40815;SDS011;26535;48.788;9.214;2022-12-16T10:24:50;14.85;;;7.95;;
40815;SDS011;26535;48.788;9.214;2022-12-16T10:30:30;14.65;;;7.68;;
40815;SDS011;26535;48.788;9.214;2022-12-16T10:33:18;15.88;;;7.63;;
40815;SDS011;26535;48.788;9.214;2022-12-16T10:36:05;15.93;;;8.40;;
40815;SDS011;26535;48.788;9.214;2022-12-16T10:38:57;14.43;;;7.45;;
40815;SDS011;26535;48.788;9.214;2022-12-16T10:41:45;14.15;;;7.50;;
40815;SDS011;26535;48.788;9.214;2022-12-16T10:44:36;15.88;;;8.23;;
40815;SDS011;26535;48.788;9.214;2022-12-16T10:47:30;14.27;;;7.63;;
40815;SDS011;26535;48.788;9.214;2022-12-16T10:50:14;16.67;;;7.43;;
40815;SDS011;26535;48.788;9.214;2022-12-16T10:52:59;14.43;;;7.63;;
40815;SDS011;26535;48.788;9.214;2022-12-16T10:59:15;15.80;;;7.28;;
40815;SDS011;26535;48.788;9.214;2022-12-16T11:04:45;13.05;;;7.13;;
40815;SDS011;26535;48.788;9.214;2022-12-16T11:10:36;12.20;;;6.75;;
40815;SDS011;26535;48.788;9.214;2022-12-16T11:13:27;15.57;;;7.70;;
40815;SDS011;26535;48.788;9.214;2022-12-16T11:19:22;16.13;;;7.25;;
40815;SDS011;26535;48.788;9.214;2022-12-16T11:22:21;15.52;;;7.28;;
40815;SDS011;26535;48.788;9.214;2022-12-16T11:25:19;12.80;;;7.32;;
40815;SDS011;26535;48.788;9.214;2022-12-16T11:28:04;14.45;;;7.47;;
40815;SDS011;26535;48.788;9.214;2022-12-16T11:30:57;18.30;;;7.47;;
40815;SDS011;26535;48.788;9.214;2022-12-16T11:33:52;13.00;;;7.50;;
40815;SDS011;26535;48.788;9.214;2022-12-16T11:36:40;18.77;;;7.40;;
40815;SDS011;26535;48.788;9.214;2022-12-16T11:39:32;13.65;;;7.63;;
40815;SDS011;26535;48.788;9.214;2022-12-16T11:42:23;13.57;;;7.50;;
40815;SDS011;26535;48.788;9.214;2022-12-16T11:45:19;14.38;;;7.60;;
40815;SDS011;26535;48.788;9.214;2022-12-16T11:48:20;13.57;;;7.45;;
40815;SDS011;26535;48.788;9.214;2022-12-16T11:51:29;16.27;;;8.20;;
40815;SDS011;26535;48.788;9.214;2022-12-16T11:54:20;14.32;;;7.78;;
40815;SDS011;26535;48.788;9.214;2022-12-16T12:00:21;14.38;;;7.60;;
40815;SDS011;26535;48.788;9.214;2022-12-16T12:03:10;14.80;;;8.13;;
40815;SDS011;26535;48.788;9.214;2022-12-16T12:14:49;16.20;;;7.85;;
40815;SDS011;26535;48.788;9.214;2022-12-16T12:17:47;13.70;;;8.15;;
40815;SDS011;26535;48.788;9.214;2022-12-16T12:20:58;14.35;;;8.10;;
40815;SDS011;26535;48.788;9.214;2022-12-16T12:26:48;14.07;;;7.68;;
40815;SDS011;26535;48.788;9.214;2022-12-16T12:48:09;13.27;;;7.13;;
40815;SDS011;26535;48.788;9.214;2022-12-16T12:54:14;14.60;;;7.18;;
40815;SDS011;26535;48.788;9.214;2022-12-16T12:57:24;12.75;;;6.47;;
40815;SDS011;26535;48.788;9.214;2022-12-16T13:00:20;11.90;;;6.93;;
40815;SDS011;26535;48.788;9.214;2022-12-16T13:03:12;13.73;;;6.90;;
40815;SDS011;26535;48.788;9.214;2022-12-16T13:06:05;13.38;;;7.50;;
40815;SDS011;26535;48.788;9.214;2022-12-16T13:08:54;13.85;;;6.47;;
40815;SDS011;26535;48.788;9.214;2022-12-16T13:20:56;17.52;;;7.97;;
40815;SDS011;26535;48.788;9.214;2022-12-16T13:23:42;12.80;;;6.97;;
40815;SDS011;26535;48.788;9.214;2022-12-16T13:26:28;13.32;;;7.68;;
40815;SDS011;26535;48.788;9.214;2022-12-16T13:29:24;12.82;;;6.85;;
40815;SDS011;26535;48.788;9.214;2022-12-16T13:32:18;13.75;;;7.63;;
40815;SDS011;26535;48.788;9.214;2022-12-16T13:37:58;16.33;;;7.75;;
40815;SDS011;26535;48.788;9.214;2022-12-16T13:41:03;13.68;;;7.88;;
40815;SDS011;26535;48.788;9.214;2022-12-16T13:44:52;13.60;;;6.65;;
40815;SDS011;26535;48.788;9.214;2022-12-16T13:47:33;16.75;;;7.63;;
40815;SDS011;26535;48.788;9.214;2022-12-16T13:50:39;13.38;;;7.57;;
40815;SDS011;26535;48.788;9.214;2022-12-16T13:53:29;15.10;;;7.57;;
40815;SDS011;26535;48.788;9.214;2022-12-16T13:56:18;14.70;;;8.10;;
40815;SDS011;26535;48.788;9.214;2022-12-16T13:59:51;14.20;;;7.78;;
40815;SDS011;26535;48.788;9.214;2022-12-16T14:02:41;16.00;;;7.72;;
40815;SDS011;26535;48.788;9.214;2022-12-16T14:05:33;14.73;;;7.82;;
40815;SDS011;26535;48.788;9.214;2022-12-16T14:08:31;14.98;;;7.82;;
40815;SDS011;26535;48.788;9.214;2022-12-16T14:11:53;16.83;;;7.85;;
40815;SDS011;26535;48.788;9.214;2022-12-16T14:14:47;14.93;;;7.63;;
40815;SDS011;26535;48.788;9.214;2022-12-16T14:17:39;13.60;;;7.72;;
40815;SDS011;26535;48.788;9.214;2022-12-16T14:20:40;15.70;;;8.13;;
40815;SDS011;26535;48.788;9.214;2022-12-16T14:26:19;17.85;;;8.57;;
40815;SDS011;26535;48.788;9.214;2022-12-16T14:29:03;15.82;;;8.18;;
40815;SDS011;26535;48.788;9.214;2022-12-16T14:32:16;14.73;;;7.22;;
40815;SDS011;26535;48.788;9.214;2022-12-16T14:35:13;13.02;;;6.60;;
40815;SDS011;26535;48.788;9.214;2022-12-16T14:41:12;15.02;;;7.95;;
40815;SDS011;26535;48.788;9.214;2022-12-16T14:44:16;17.35;;;8.40;;
40815;SDS011;26535;48.788;9.214;2022-12-16T14:47:03;13.75;;;7.80;;
40815;SDS011;26535;48.788;9.214;2022-12-16T14:49:51;12.15;;;7.35;;
40815;SDS011;26535;48.788;9.214;2022-12-16T14:52:36;14.77;;;7.55;;
40815;SDS011;26535;48.788;9.214;2022-12-16T14:55:26;13.88;;;7.68;;
40815;SDS011;26535;48.788;9.214;2022-12-16T14:58:22;14.30;;;7.40;;
40815;SDS011;26535;48.788;9.214;2022-12-16T15:03:54;14.60;;;7.43;;
40815;SDS011;26535;48.788;9.214;2022-12-16T15:06:42;17.42;;;9.35;;
40815;SDS011;26535;48.788;9.214;2022-12-16T15:09:43;16.30;;;8.57;;
40815;SDS011;26535;48.788;9.214;2022-12-16T15:12:32;16.40;;;7.90;;
40815;SDS011;26535;48.788;9.214;2022-12-16T15:18:23;15.20;;;7.90;;
40815;SDS011;26535;48.788;9.214;2022-12-16T15:21:12;15.73;;;8.05;;
40815;SDS011;26535;48.788;9.214;2022-12-16T15:23:57;15.35;;;7.80;;
40815;SDS011;26535;48.788;9.214;2022-12-16T15:26:42;15.32;;;8.00;;
40815;SDS011;26535;48.788;9.214;2022-12-16T15:29:34;14.40;;;8.25;;
40815;SDS011;26535;48.788;9.214;2022-12-16T15:35:08;14.77;;;7.82;;
40815;SDS011;26535;48.788;9.214;2022-12-16T15:37:54;15.05;;;8.30;;
40815;SDS011;26535;48.788;9.214;2022-12-16T15:40:41;14.68;;;8.82;;
40815;SDS011;26535;48.788;9.214;2022-12-16T15:43:32;15.60;;;8.25;;
40815;SDS011;26535;48.788;9.214;2022-12-16T15:46:24;15.65;;;8.02;;
40815;SDS011;26535;48.788;9.214;2022-12-16T15:49:20;18.40;;;8.82;;
40815;SDS011;26535;48.788;9.214;2022-12-16T15:55:35;18.70;;;9.87;;
40815;SDS011;26535;48.788;9.214;2022-12-16T16:01:19;17.25;;;8.40;;
40815;SDS011;26535;48.788;9.214;2022-12-16T16:07:07;14.00;;;8.05;;
40815;SDS011;26535;48.788;9.214;2022-12-16T16:13:07;16.02;;;8.30;;
40815;SDS011;26535;48.788;9.214;2022-12-16T16:15:52;16.30;;;8.35;;
40815;SDS011;26535;48.788;9.214;2022-12-16T16:18:38;14.45;;;7.65;;
40815;SDS011;26535;48.788;9.214;2022-12-16T16:21:25;18.00;;;8.67;;
40815;SDS011;26535;48.788;9.214;2022-12-16T16:24:11;14.82;;;7.93;;
40815;SDS011;26535;48.788;9.214;2022-12-16T16:26:57;13.73;;;7.47;;
40815;SDS011;26535;48.788;9.214;2022-12-16T16:29:45;19.33;;;9.63;;
40815;SDS011;26535;48.788;9.214;2022-12-16T16:32:29;19.73;;;9.15;;
40815;SDS011;26535;48.788;9.214;2022-12-16T16:35:14;16.63;;;8.50;;
40815;SDS011;26535;48.788;9.214;2022-12-16T16:37:58;19.00;;;9.50;;
40815;SDS011;26535;48.788;9.214;2022-12-16T16:40:43;15.65;;;8.82;;
40815;SDS011;26535;48.788;9.214;2022-12-16T16:43:32;18.70;;;10.35;;
40815;SDS011;26535;48.788;9.214;2022-12-16T16:49:11;19.25;;;9.73;;
40815;SDS011;26535;48.788;9.214;2022-12-16T16:52:01;17.80;;;9.35;;
40815;SDS011;26535;48.788;9.214;2022-12-16T16:54:45;18.38;;;8.52;;
40815;SDS011;26535;48.788;9.214;2022-12-16T16:57:32;17.20;;;9.40;;
40815;SDS011;26535;48.788;9.214;2022-12-16T17:00:19;18.40;;;9.77;;
40815;SDS011;26535;48.788;9.214;2022-12-16T17:03:05;19.08;;;10.07;;
40815;SDS011;26535;48.788;9.214;2022-12-16T17:05:49;17.85;;;9.65;;
40815;SDS011;26535;48.788;9.214;2022-12-16T17:08:33;19.67;;;9.95;;
40815;SDS011;26535;48.788;9.214;2022-12-16T17:11:19;18.95;;;10.23;;
40815;SDS011;26535;48.788;9.214;2022-12-16T17:14:04;20.33;;;10.55;;
40815;SDS011;26535;48.788;9.214;2022-12-16T17:16:57;20.58;;;10.40;;
40815;SDS011;26535;48.788;9.214;2022-12-16T17:19:47;23.75;;;11.13;;
40815;SDS011;26535;48.788;9.214;2022-12-16T17:22:31;21.88;;;10.63;;
40815;SDS011;26535;48.788;9.214;2022-12-16T17:25:16;18.02;;;10.23;;
40815;SDS011;26535;48.788;9.214;2022-12-16T17:28:01;21.75;;;11.00;;
40815;SDS011;26535;48.788;9.214;2022-12-16T17:30:45;20.35;;;10.55;;
40815;SDS011;26535;48.788;9.214;2022-12-16T17:33:30;23.83;;;11.88;;
40815;SDS011;26535;48.788;9.214;2022-12-16T17:36:15;23.60;;;11.63;;
40815;SDS011;26535;48.788;9.214;2022-12-16T17:39:03;24.42;;;11.13;;
40815;SDS011;26535;48.788;9.214;2022-12-16T17:41:49;22.38;;;11.43;;
40815;SDS011;26535;48.788;9.214;2022-12-16T17:44:35;22.35;;;12.15;;
40815;SDS011;26535;48.788;9.214;2022-12-16T17:47:20;21.98;;;11.38;;
40815;SDS011;26535;48.788;9.214;2022-12-16T17:50:04;19.20;;;10.75;;
40815;SDS011;26535;48.788;9.214;2022-12-16T17:52:56;22.25;;;11.60;;
40815;SDS011;26535;48.788;9.214;2022-12-16T17:55:41;24.42;;;12.20;;
40815;SDS011;26535;48.788;9.214;2022-12-16T17:58:32;20.95;;;11.18;;
40815;SDS011;26535;48.788;9.214;2022-12-16T18:01:19;21.70;;;10.70;;
40815;SDS011;26535;48.788;9.214;2022-12-16T18:04:04;20.88;;;10.30;;
40815;SDS011;26535;48.788;9.214;2022-12-16T18:06:49;22.98;;;10.93;;
40815;SDS011;26535;48.788;9.214;2022-12-16T18:09:33;19.50;;;10.18;;
40815;SDS011;26535;48.788;9.214;2022-12-16T18:12:18;24.48;;;11.48;;
40815;SDS011;26535;48.788;9.214;2022-12-16T18:15:03;20.23;;;10.90;;
40815;SDS011;26535;48.788;9.214;2022-12-16T18:17:47;20.98;;;11.25;;
40815;SDS011;26535;48.788;9.214;2022-12-16T18:20:32;19.95;;;10.38;;
40815;SDS011;26535;48.788;9.214;2022-12-16T18:23:17;21.65;;;11.18;;
40815;SDS011;26535;48.788;9.214;2022-12-16T18:26:08;23.30;;;11.90;;
40815;SDS011;26535;48.788;9.214;2022-12-16T18:28:53;23.63;;;13.60;;
40815;SDS011;26535;48.788;9.214;2022-12-16T18:31:38;23.13;;;11.07;;
40815;SDS011;26535;48.788;9.214;2022-12-16T18:34:22;24.80;;;11.77;;
40815;SDS011;26535;48.788;9.214;2022-12-16T18:37:10;22.00;;;11.95;;
40815;SDS011;26535;48.788;9.214;2022-12-16T18:40:06;20.58;;;11.43;;
40815;SDS011;26535;48.788;9.214;2022-12-16T18:42:51;19.75;;;11.75;;
40815;SDS011;26535;48.788;9.214;2022-12-16T18:45:36;23.17;;;11.57;;
40815;SDS011;26535;48.788;9.214;2022-12-16T18:48:20;21.98;;;11.75;;
40815;SDS011;26535;48.788;9.214;2022-12-16T18:51:04;19.67;;;11.02;;
40815;SDS011;26535;48.788;9.214;2022-12-16T18:53:52;20.83;;;11.15;;
40815;SDS011;26535;48.788;9.214;2022-12-16T18:56:36;25.42;;;12.25;;
40815;SDS011;26535;48.788;9.214;2022-12-16T18:59:20;23.58;;;11.88;;
40815;SDS011;26535;48.788;9.214;2022-12-16T19:02:09;21.17;;;11.02;;
40815;SDS011;26535;48.788;9.214;2022-12-16T19:04:54;20.05;;;11.15;;
40815;SDS011;26535;48.788;9.214;2022-12-16T19:07:41;20.17;;;10.95;;
40815;SDS011;26535;48.788;9.214;2022-12-16T19:10:25;21.70;;;11.65;;
40815;SDS011;26535;48.788;9.214;2022-12-16T19:13:36;22.55;;;11.50;;
40815;SDS011;26535;48.788;9.214;2022-12-16T19:16:20;23.65;;;11.75;;
40815;SDS011;26535;48.788;9.214;2022-12-16T19:19:05;22.65;;;12.63;;
40815;SDS011;26535;48.788;9.214;2022-12-16T19:21:58;23.63;;;12.20;;
40815;SDS011;26535;48.788;9.214;2022-12-16T19:24:42;36.25;;;20.15;;
40815;SDS011;26535;48.788;9.214;2022-12-16T19:27:27;24.30;;;12.40;;
40815;SDS011;26535;48.788;9.214;2022-12-16T19:30:11;27.38;;;13.00;;
40815;SDS011;26535;48.788;9.214;2022-12-16T19:32:56;22.00;;;11.73;;
40815;SDS011;26535;48.788;9.214;2022-12-16T19:35:40;20.95;;;11.95;;
40815;SDS011;26535;48.788;9.214;2022-12-16T19:38:24;25.02;;;12.30;;
40815;SDS011;26535;48.788;9.214;2022-12-16T19:41:15;21.17;;;11.90;;
40815;SDS011;26535;48.788;9.214;2022-12-16T19:44:01;24.75;;;12.30;;
40815;SDS011;26535;48.788;9.214;2022-12-16T19:46:46;24.90;;;12.18;;
40815;SDS011;26535;48.788;9.214;2022-12-16T19:49:33;21.00;;;11.52;;
40815;SDS011;26535;48.788;9.214;2022-12-16T19:52:18;17.90;;;9.50;;
40815;SDS011;26535;48.788;9.214;2022-12-16T19:55:02;21.55;;;11.77;;
40815;SDS011;26535;48.788;9.214;2022-12-16T19:57:47;21.25;;;11.43;;
40815;SDS011;26535;48.788;9.214;2022-12-16T20:00:31;23.73;;;11.90;;
40815;SDS011;26535;48.788;9.214;2022-12-16T20:03:16;21.15;;;12.48;;
40815;SDS011;26535;48.788;9.214;2022-12-16T20:06:02;28.70;;;13.95;;
40815;SDS011;26535;48.788;9.214;2022-12-16T20:08:54;22.95;;;12.27;;
40815;SDS011;26535;48.788;9.214;2022-12-16T20:11:39;22.08;;;12.25;;
40815;SDS011;26535;48.788;9.214;2022-12-16T20:14:31;23.40;;;12.05;;
40815;SDS011;26535;48.788;9.214;2022-12-16T20:17:15;24.27;;;12.52;;
40815;SDS011;26535;48.788;9.214;2022-12-16T20:20:02;21.30;;;11.95;;
40815;SDS011;26535;48.788;9.214;2022-12-16T20:22:47;24.80;;;13.52;;
40815;SDS011;26535;48.788;9.214;2022-12-16T20:25:31;23.30;;;12.35;;
40815;SDS011;26535;48.788;9.214;2022-12-16T20:28:16;21.98;;;13.20;;
40815;SDS011;26535;48.788;9.214;2022-12-16T20:31:00;24.73;;;12.25;;
40815;SDS011;26535;48.788;9.214;2022-12-16T20:33:45;23.17;;;12.65;;
40815;SDS011;26535;48.788;9.214;2022-12-16T20:36:29;23.58;;;12.85;;
40815;SDS011;26535;48.788;9.214;2022-12-16T20:39:13;21.42;;;11.00;;
40815;SDS011;26535;48.788;9.214;2022-12-16T20:41:57;21.67;;;12.15;;
40815;SDS011;26535;48.788;9.214;2022-12-16T20:44:42;23.75;;;12.85;;
40815;SDS011;26535;48.788;9.214;2022-12-16T20:47:29;22.50;;;13.27;;
40815;SDS011;26535;48.788;9.214;2022-12-16T20:50:14;24.00;;;12.60;;
40815;SDS011;26535;48.788;9.214;2022-12-16T20:52:58;24.00;;;12.98;;
40815;SDS011;26535;48.788;9.214;2022-12-16T20:55:43;19.73;;;11.55;;
40815;SDS011;26535;48.788;9.214;2022-12-16T20:58:27;23.48;;;12.32;;
40815;SDS011;26535;48.788;9.214;2022-12-16T21:01:12;20.77;;;12.43;;
40815;SDS011;26535;48.788;9.214;2022-12-16T21:03:57;19.33;;;12.38;;
40815;SDS011;26535;48.788;9.214;2022-12-16T21:06:41;23.08;;;13.18;;
40815;SDS011;26535;48.788;9.214;2022-12-16T21:09:26;23.27;;;13.02;;
40815;SDS011;26535;48.788;9.214;2022-12-16T21:12:10;30.50;;;13.80;;
40815;SDS011;26535;48.788;9.214;2022-12-16T21:14:54;22.95;;;12.32;;
40815;SDS011;26535;48.788;9.214;2022-12-16T21:17:39;21.73;;;12.57;;
40815;SDS011;26535;48.788;9.214;2022-12-16T21:20:23;22.23;;;12.80;;
40815;SDS011;26535;48.788;9.214;2022-12-16T21:23:08;25.80;;;13.57;;
40815;SDS011;26535;48.788;9.214;2022-12-16T21:25:52;25.42;;;13.52;;
40815;SDS011;26535;48.788;9.214;2022-12-16T21:28:37;23.67;;;13.43;;
40815;SDS011;26535;48.788;9.214;2022-12-16T21:31:21;19.48;;;12.38;;
40815;SDS011;26535;48.788;9.214;2022-12-16T21:34:09;24.77;;;13.55;;
40815;SDS011;26535;48.788;9.214;2022-12-16T21:36:53;22.05;;;12.70;;
40815;SDS011;26535;48.788;9.214;2022-12-16T21:39:38;23.23;;;12.70;;
40815;SDS011;26535;48.788;9.214;2022-12-16T21:42:22;24.23;;;12.80;;
40815;SDS011;26535;48.788;9.214;2022-12-16T21:45:07;22.85;;;12.52;;
40815;SDS011;26535;48.788;9.214;2022-12-16T21:47:52;23.17;;;12.85;;
40815;SDS011;26535;48.788;9.214;2022-12-16T21:50:37;23.98;;;12.95;;
40815;SDS011;26535;48.788;9.214;2022-12-16T21:53:21;25.00;;;13.20;;
40815;SDS011;26535;48.788;9.214;2022-12-16T21:56:06;23.40;;;12.93;;
40815;SDS011;26535;48.788;9.214;2022-12-16T21:58:51;22.98;;;12.70;;
40815;SDS011;26535;48.788;9.214;2022-12-16T22:01:35;21.73;;;12.25;;
40815;SDS011;26535;48.788;9.214;2022-12-16T22:04:20;23.30;;;12.93;;
40815;SDS011;26535;48.788;9.214;2022-12-16T22:07:04;28.70;;;14.40;;
40815;SDS011;26535;48.788;9.214;2022-12-16T22:09:49;23.23;;;13.85;;
40815;SDS011;26535;48.788;9.214;2022-12-16T22:12:33;27.23;;;14.02;;
40815;SDS011;26535;48.788;9.214;2022-12-16T22:15:18;25.75;;;13.60;;
40815;SDS011;26535;48.788;9.214;2022-12-16T22:18:03;25.30;;;13.80;;
40815;SDS011;26535;48.788;9.214;2022-12-16T22:20:57;29.33;;;14.05;;
40815;SDS011;26535;48.788;9.214;2022-12-16T22:23:42;30.50;;;15.20;;
40815;SDS011;26535;48.788;9.214;2022-12-16T22:26:27;31.25;;;15.98;;
40815;SDS011;26535;48.788;9.214;2022-12-16T22:29:21;28.55;;;14.70;;
40815;SDS011;26535;48.788;9.214;2022-12-16T22:32:06;27.27;;;15.00;;
40815;SDS011;26535;48.788;9.214;2022-12-16T22:34:50;27.85;;;15.35;;
40815;SDS011;26535;48.788;9.214;2022-12-16T22:37:35;31.10;;;15.48;;
40815;SDS011;26535;48.788;9.214;2022-12-16T22:40:22;27.30;;;15.30;;
40815;SDS011;26535;48.788;9.214;2022-12-16T22:43:07;31.20;;;17.15;;
40815;SDS011;26535;48.788;9.214;2022-12-16T22:46:01;27.75;;;15.45;;
40815;SDS011;26535;48.788;9.214;2022-12-16T22:48:45;28.20;;;15.15;;
40815;SDS011;26535;48.788;9.214;2022-12-16T22:51:30;25.10;;;15.43;;
40815;SDS011;26535;48.788;9.214;2022-12-16T22:54:14;32.60;;;16.98;;
40815;SDS011;26535;48.788;9.214;2022-12-16T22:56:59;28.50;;;16.17;;
40815;SDS011;26535;48.788;9.214;2022-12-16T22:59:43;33.65;;;18.35;;
40815;SDS011;26535;48.788;9.214;2022-12-16T23:02:27;32.17;;;16.52;;
40815;SDS011;26535;48.788;9.214;2022-12-16T23:05:12;31.00;;;17.40;;
40815;SDS011;26535;48.788;9.214;2022-12-16T23:07:56;30.42;;;16.58;;
40815;SDS011;26535;48.788;9.214;2022-12-16T23:10:40;31.00;;;16.83;;
40815;SDS011;26535;48.788;9.214;2022-12-16T23:13:25;33.00;;;18.50;;
40815;SDS011;26535;48.788;9.214;2022-12-16T23:16:10;37.92;;;19.77;;
40815;SDS011;26535;48.788;9.214;2022-12-16T23:18:54;33.55;;;18.70;;
40815;SDS011;26535;48.788;9.214;2022-12-16T23:21:39;35.28;;;19.02;;
40815;SDS011;26535;48.788;9.214;2022-12-16T23:24:23;33.22;;;18.20;;
40815;SDS011;26535;48.788;9.214;2022-12-16T23:27:08;31.92;;;17.88;;
40815;SDS011;26535;48.788;9.214;2022-12-16T23:29:52;34.50;;;18.55;;
40815;SDS011;26535;48.788;9.214;2022-12-16T23:32:36;30.95;;;18.25;;
40815;SDS011;26535;48.788;9.214;2022-12-16T23:35:21;32.42;;;18.27;;
40815;SDS011;26535;48.788;9.214;2022-12-16T23:38:05;33.88;;;18.15;;
40815;SDS011;26535;48.788;9.214;2022-12-16T23:40:56;32.78;;;18.35;;
40815;SDS011;26535;48.788;9.214;2022-12-16T23:43:42;33.72;;;18.45;;
40815;SDS011;26535;48.788;9.214;2022-12-16T23:46:27;36.10;;;18.20;;
40815;SDS011;26535;48.788;9.214;2022-12-16T23:49:11;32.70;;;17.33;;
40815;SDS011;26535;48.788;9.214;2022-12-16T23:51:58;32.25;;;17.88;;
40815;SDS011;26535;48.788;9.214;2022-12-16T23:54:43;31.40;;;17.90;;
40815;SDS011;26535;48.788;9.214;2022-12-16T23:57:30;37.45;;;18.85;;
